Main page
METAR-TAF:

METAR-TAF

Airports :

Farnborough Airport

Farnborough, England

latitude: 51-17N, longitude: 000-46W, elevation: 65 m

Current weather observation

The report was made 10 hours and 46 minutes ago, at 18:50 UTC
Wind 13 kt from the Southwest
Temperature 24°C
Humidity 44%
Pressure 1012 hPa
Visibility 10 km or more
no clouds below 1500 m and no cumulonimbus

METAR: EGLF 161850Z 23013KT CAVOK 24/11 Q1012

Time: 06:36 (05:36 UTC)

Forecast

The report was made 12 hours and 34 minutes ago, at 17:02 UTC
Forecast valid from 16 at 18 UTC to 16 at 21 UTC
Wind 9 kt from the West/Southwest
Visibility 10 km or more
Few clouds at a height of 4500 ft

TAF: EGLF 161702Z 1618/1621 24009KT 9999 FEW045

Weather observations and forecasts of more than 4000 airports (METAR and TAF reports).

The available stations are represented by yellow and red dots on the map.

Hover mouse over dot to see the name of the station.

Then click to see weather observations and forecasts.

To change the map : click on the green buttons with a black cross to zoom in, on the green button with a dash to zoom out, or on the green arrows for adjacent maps.


METAR-TAF: